sensor_id;sensor_type;location;lat;lon;timestamp;P1;durP1;ratioP1;P2;durP2;ratioP2
16514;SDS011;8370;52.556;7.970;2022-08-19T00:01:38;10.77;;;7.67;;
16514;SDS011;8370;52.556;7.970;2022-08-19T00:04:06;10.77;;;7.83;;
16514;SDS011;8370;52.556;7.970;2022-08-19T00:06:37;12.50;;;8.70;;
16514;SDS011;8370;52.556;7.970;2022-08-19T00:09:05;10.37;;;7.83;;
16514;SDS011;8370;52.556;7.970;2022-08-19T00:11:32;10.67;;;8.33;;
16514;SDS011;8370;52.556;7.970;2022-08-19T00:14:00;12.00;;;8.10;;
16514;SDS011;8370;52.556;7.970;2022-08-19T00:16:26;11.30;;;7.70;;
16514;SDS011;8370;52.556;7.970;2022-08-19T00:18:53;10.50;;;8.37;;
16514;SDS011;8370;52.556;7.970;2022-08-19T00:21:20;13.23;;;8.17;;
16514;SDS011;8370;52.556;7.970;2022-08-19T00:23:46;13.03;;;8.07;;
16514;SDS011;8370;52.556;7.970;2022-08-19T00:26:12;11.37;;;8.60;;
16514;SDS011;8370;52.556;7.970;2022-08-19T00:28:37;10.57;;;8.40;;
16514;SDS011;8370;52.556;7.970;2022-08-19T00:31:04;10.53;;;6.97;;
16514;SDS011;8370;52.556;7.970;2022-08-19T00:33:31;12.63;;;8.73;;
16514;SDS011;8370;52.556;7.970;2022-08-19T00:35:57;12.47;;;8.57;;
16514;SDS011;8370;52.556;7.970;2022-08-19T00:38:23;12.37;;;9.10;;
16514;SDS011;8370;52.556;7.970;2022-08-19T00:40:49;13.30;;;8.73;;
16514;SDS011;8370;52.556;7.970;2022-08-19T00:43:18;14.60;;;8.80;;
16514;SDS011;8370;52.556;7.970;2022-08-19T00:45:46;13.27;;;8.67;;
16514;SDS011;8370;52.556;7.970;2022-08-19T00:48:12;13.33;;;9.87;;
16514;SDS011;8370;52.556;7.970;2022-08-19T00:50:39;11.57;;;8.10;;
16514;SDS011;8370;52.556;7.970;2022-08-19T00:53:08;8.50;;;6.87;;
16514;SDS011;8370;52.556;7.970;2022-08-19T00:55:35;14.67;;;8.93;;
16514;SDS011;8370;52.556;7.970;2022-08-19T00:58:03;12.57;;;9.20;;
16514;SDS011;8370;52.556;7.970;2022-08-19T01:00:32;13.40;;;8.73;;
16514;SDS011;8370;52.556;7.970;2022-08-19T01:03:06;13.30;;;8.17;;
16514;SDS011;8370;52.556;7.970;2022-08-19T01:05:34;13.50;;;7.80;;
16514;SDS011;8370;52.556;7.970;2022-08-19T01:08:01;14.70;;;8.90;;
16514;SDS011;8370;52.556;7.970;2022-08-19T01:10:29;14.53;;;8.73;;
16514;SDS011;8370;52.556;7.970;2022-08-19T01:12:58;13.53;;;8.87;;
16514;SDS011;8370;52.556;7.970;2022-08-19T01:15:26;14.10;;;9.50;;
16514;SDS011;8370;52.556;7.970;2022-08-19T01:17:58;14.83;;;9.30;;
16514;SDS011;8370;52.556;7.970;2022-08-19T01:20:26;12.93;;;9.27;;
16514;SDS011;8370;52.556;7.970;2022-08-19T01:22:53;14.50;;;9.30;;
16514;SDS011;8370;52.556;7.970;2022-08-19T01:25:22;13.60;;;9.17;;
16514;SDS011;8370;52.556;7.970;2022-08-19T01:27:54;11.27;;;8.57;;
16514;SDS011;8370;52.556;7.970;2022-08-19T01:30:24;10.17;;;7.80;;
16514;SDS011;8370;52.556;7.970;2022-08-19T01:32:56;10.87;;;7.87;;
16514;SDS011;8370;52.556;7.970;2022-08-19T01:35:23;13.13;;;8.70;;
16514;SDS011;8370;52.556;7.970;2022-08-19T01:37:51;14.40;;;9.43;;
16514;SDS011;8370;52.556;7.970;2022-08-19T01:40:21;13.33;;;9.40;;
16514;SDS011;8370;52.556;7.970;2022-08-19T01:42:48;11.73;;;8.90;;
16514;SDS011;8370;52.556;7.970;2022-08-19T01:45:15;13.43;;;9.73;;
16514;SDS011;8370;52.556;7.970;2022-08-19T01:47:40;14.53;;;9.43;;
16514;SDS011;8370;52.556;7.970;2022-08-19T01:50:07;13.97;;;9.93;;
16514;SDS011;8370;52.556;7.970;2022-08-19T01:52:39;14.87;;;10.20;;
16514;SDS011;8370;52.556;7.970;2022-08-19T01:55:07;14.87;;;10.67;;
16514;SDS011;8370;52.556;7.970;2022-08-19T01:57:34;13.10;;;8.57;;
16514;SDS011;8370;52.556;7.970;2022-08-19T02:00:01;16.97;;;9.73;;
16514;SDS011;8370;52.556;7.970;2022-08-19T02:02:30;13.53;;;8.63;;
16514;SDS011;8370;52.556;7.970;2022-08-19T02:04:55;12.97;;;8.83;;
16514;SDS011;8370;52.556;7.970;2022-08-19T02:07:21;10.97;;;7.87;;
16514;SDS011;8370;52.556;7.970;2022-08-19T02:09:47;10.80;;;7.90;;
16514;SDS011;8370;52.556;7.970;2022-08-19T02:12:13;9.93;;;7.27;;
16514;SDS011;8370;52.556;7.970;2022-08-19T02:14:39;9.90;;;7.47;;
16514;SDS011;8370;52.556;7.970;2022-08-19T02:17:05;11.00;;;7.40;;
16514;SDS011;8370;52.556;7.970;2022-08-19T02:19:30;11.17;;;7.87;;
16514;SDS011;8370;52.556;7.970;2022-08-19T02:21:57;11.30;;;8.77;;
16514;SDS011;8370;52.556;7.970;2022-08-19T02:24:24;17.03;;;8.63;;
16514;SDS011;8370;52.556;7.970;2022-08-19T02:26:50;11.23;;;8.10;;
16514;SDS011;8370;52.556;7.970;2022-08-19T02:29:16;12.90;;;8.93;;
16514;SDS011;8370;52.556;7.970;2022-08-19T02:31:42;14.97;;;10.07;;
16514;SDS011;8370;52.556;7.970;2022-08-19T02:34:07;11.33;;;8.73;;
16514;SDS011;8370;52.556;7.970;2022-08-19T02:36:33;12.57;;;9.27;;
16514;SDS011;8370;52.556;7.970;2022-08-19T02:38:59;12.20;;;8.77;;
16514;SDS011;8370;52.556;7.970;2022-08-19T02:41:26;14.43;;;9.67;;
16514;SDS011;8370;52.556;7.970;2022-08-19T02:43:57;18.53;;;11.30;;
16514;SDS011;8370;52.556;7.970;2022-08-19T02:46:26;19.43;;;11.30;;
16514;SDS011;8370;52.556;7.970;2022-08-19T02:48:54;22.20;;;13.10;;
16514;SDS011;8370;52.556;7.970;2022-08-19T02:51:22;20.07;;;11.83;;
16514;SDS011;8370;52.556;7.970;2022-08-19T02:53:50;18.47;;;11.63;;
16514;SDS011;8370;52.556;7.970;2022-08-19T02:56:16;16.87;;;11.30;;
16514;SDS011;8370;52.556;7.970;2022-08-19T02:58:42;16.33;;;11.13;;
16514;SDS011;8370;52.556;7.970;2022-08-19T03:01:08;16.93;;;11.97;;
16514;SDS011;8370;52.556;7.970;2022-08-19T03:03:35;15.13;;;10.97;;
16514;SDS011;8370;52.556;7.970;2022-08-19T03:06:04;16.53;;;12.33;;
16514;SDS011;8370;52.556;7.970;2022-08-19T03:08:31;18.30;;;11.33;;
16514;SDS011;8370;52.556;7.970;2022-08-19T03:10:57;16.97;;;11.93;;
16514;SDS011;8370;52.556;7.970;2022-08-19T03:13:22;15.70;;;11.07;;
16514;SDS011;8370;52.556;7.970;2022-08-19T03:15:49;17.27;;;12.43;;
16514;SDS011;8370;52.556;7.970;2022-08-19T03:18:14;19.70;;;12.23;;
16514;SDS011;8370;52.556;7.970;2022-08-19T03:20:58;17.90;;;12.00;;
16514;SDS011;8370;52.556;7.970;2022-08-19T03:23:23;17.30;;;11.83;;
16514;SDS011;8370;52.556;7.970;2022-08-19T03:25:50;24.90;;;14.30;;
16514;SDS011;8370;52.556;7.970;2022-08-19T03:28:16;19.23;;;12.30;;
16514;SDS011;8370;52.556;7.970;2022-08-19T03:30:53;21.70;;;13.00;;
16514;SDS011;8370;52.556;7.970;2022-08-19T03:33:23;16.57;;;11.33;;
16514;SDS011;8370;52.556;7.970;2022-08-19T03:38:48;17.70;;;12.10;;
16514;SDS011;8370;52.556;7.970;2022-08-19T03:41:17;19.57;;;13.10;;
16514;SDS011;8370;52.556;7.970;2022-08-19T03:43:45;19.73;;;12.17;;
16514;SDS011;8370;52.556;7.970;2022-08-19T03:46:12;17.67;;;11.30;;
16514;SDS011;8370;52.556;7.970;2022-08-19T03:48:45;16.93;;;11.50;;
16514;SDS011;8370;52.556;7.970;2022-08-19T03:51:19;17.80;;;11.37;;
16514;SDS011;8370;52.556;7.970;2022-08-19T03:53:47;22.40;;;11.90;;
16514;SDS011;8370;52.556;7.970;2022-08-19T03:56:12;19.23;;;12.27;;
16514;SDS011;8370;52.556;7.970;2022-08-19T03:58:39;18.53;;;12.17;;
16514;SDS011;8370;52.556;7.970;2022-08-19T04:01:09;17.20;;;12.10;;
16514;SDS011;8370;52.556;7.970;2022-08-19T04:03:37;23.23;;;12.60;;
16514;SDS011;8370;52.556;7.970;2022-08-19T04:06:11;18.97;;;12.80;;
16514;SDS011;8370;52.556;7.970;2022-08-19T04:08:39;25.07;;;11.80;;
16514;SDS011;8370;52.556;7.970;2022-08-19T04:11:06;20.30;;;11.70;;
16514;SDS011;8370;52.556;7.970;2022-08-19T04:13:33;18.47;;;12.20;;
16514;SDS011;8370;52.556;7.970;2022-08-19T04:15:59;23.33;;;13.20;;
16514;SDS011;8370;52.556;7.970;2022-08-19T04:18:25;19.37;;;12.20;;
16514;SDS011;8370;52.556;7.970;2022-08-19T04:20:51;19.53;;;11.23;;
16514;SDS011;8370;52.556;7.970;2022-08-19T04:23:16;19.93;;;11.90;;
16514;SDS011;8370;52.556;7.970;2022-08-19T04:25:43;21.07;;;12.20;;
16514;SDS011;8370;52.556;7.970;2022-08-19T04:28:10;25.33;;;13.43;;
16514;SDS011;8370;52.556;7.970;2022-08-19T04:30:37;20.77;;;13.17;;
16514;SDS011;8370;52.556;7.970;2022-08-19T04:33:04;18.43;;;12.83;;
16514;SDS011;8370;52.556;7.970;2022-08-19T04:35:34;19.93;;;13.23;;
16514;SDS011;8370;52.556;7.970;2022-08-19T04:38:01;19.23;;;12.93;;
16514;SDS011;8370;52.556;7.970;2022-08-19T04:40:27;18.33;;;12.87;;
16514;SDS011;8370;52.556;7.970;2022-08-19T04:43:11;26.63;;;13.97;;
16514;SDS011;8370;52.556;7.970;2022-08-19T04:45:39;20.83;;;12.70;;
16514;SDS011;8370;52.556;7.970;2022-08-19T04:48:05;23.10;;;14.27;;
16514;SDS011;8370;52.556;7.970;2022-08-19T04:50:30;25.73;;;15.00;;
16514;SDS011;8370;52.556;7.970;2022-08-19T04:52:56;22.73;;;13.57;;
16514;SDS011;8370;52.556;7.970;2022-08-19T04:55:21;31.90;;;14.57;;
16514;SDS011;8370;52.556;7.970;2022-08-19T04:57:50;23.50;;;12.83;;
16514;SDS011;8370;52.556;7.970;2022-08-19T05:00:16;22.60;;;14.00;;
16514;SDS011;8370;52.556;7.970;2022-08-19T05:02:41;21.87;;;14.63;;
16514;SDS011;8370;52.556;7.970;2022-08-19T05:05:08;27.17;;;14.23;;
16514;SDS011;8370;52.556;7.970;2022-08-19T05:07:34;25.93;;;13.20;;
16514;SDS011;8370;52.556;7.970;2022-08-19T05:10:00;21.73;;;13.43;;
16514;SDS011;8370;52.556;7.970;2022-08-19T05:12:26;22.90;;;13.30;;
16514;SDS011;8370;52.556;7.970;2022-08-19T05:14:53;21.87;;;13.90;;
16514;SDS011;8370;52.556;7.970;2022-08-19T05:17:19;25.93;;;14.33;;
16514;SDS011;8370;52.556;7.970;2022-08-19T05:19:44;25.40;;;14.87;;
16514;SDS011;8370;52.556;7.970;2022-08-19T05:22:28;22.90;;;13.67;;
16514;SDS011;8370;52.556;7.970;2022-08-19T05:24:57;21.30;;;13.03;;
16514;SDS011;8370;52.556;7.970;2022-08-19T05:27:23;23.47;;;13.93;;
16514;SDS011;8370;52.556;7.970;2022-08-19T05:29:49;21.33;;;13.97;;
16514;SDS011;8370;52.556;7.970;2022-08-19T05:32:15;22.63;;;14.00;;
16514;SDS011;8370;52.556;7.970;2022-08-19T05:34:41;26.23;;;14.63;;
16514;SDS011;8370;52.556;7.970;2022-08-19T05:37:07;19.17;;;11.80;;
16514;SDS011;8370;52.556;7.970;2022-08-19T05:39:33;24.37;;;13.70;;
16514;SDS011;8370;52.556;7.970;2022-08-19T05:42:02;21.63;;;13.30;;
16514;SDS011;8370;52.556;7.970;2022-08-19T05:44:32;20.50;;;12.50;;
16514;SDS011;8370;52.556;7.970;2022-08-19T05:46:59;18.87;;;12.80;;
16514;SDS011;8370;52.556;7.970;2022-08-19T05:49:26;20.70;;;13.27;;
16514;SDS011;8370;52.556;7.970;2022-08-19T05:51:53;20.10;;;13.40;;
16514;SDS011;8370;52.556;7.970;2022-08-19T05:54:20;21.77;;;13.73;;
16514;SDS011;8370;52.556;7.970;2022-08-19T05:56:48;19.67;;;12.77;;
16514;SDS011;8370;52.556;7.970;2022-08-19T05:59:15;22.00;;;14.17;;
16514;SDS011;8370;52.556;7.970;2022-08-19T06:01:43;22.00;;;14.23;;
16514;SDS011;8370;52.556;7.970;2022-08-19T06:04:10;22.13;;;12.23;;
16514;SDS011;8370;52.556;7.970;2022-08-19T06:06:38;15.00;;;10.60;;
16514;SDS011;8370;52.556;7.970;2022-08-19T06:09:05;20.57;;;13.50;;
16514;SDS011;8370;52.556;7.970;2022-08-19T06:14:04;19.63;;;12.07;;
16514;SDS011;8370;52.556;7.970;2022-08-19T06:16:33;19.97;;;13.07;;
16514;SDS011;8370;52.556;7.970;2022-08-19T06:19:07;21.80;;;12.43;;
16514;SDS011;8370;52.556;7.970;2022-08-19T06:21:34;18.80;;;12.93;;
16514;SDS011;8370;52.556;7.970;2022-08-19T06:24:02;20.80;;;13.23;;
16514;SDS011;8370;52.556;7.970;2022-08-19T06:26:33;25.37;;;13.30;;
16514;SDS011;8370;52.556;7.970;2022-08-19T06:28:59;20.00;;;12.50;;
16514;SDS011;8370;52.556;7.970;2022-08-19T06:31:27;19.43;;;12.90;;
16514;SDS011;8370;52.556;7.970;2022-08-19T06:33:53;18.03;;;12.53;;
16514;SDS011;8370;52.556;7.970;2022-08-19T06:36:27;18.33;;;11.57;;
16514;SDS011;8370;52.556;7.970;2022-08-19T06:38:57;22.37;;;11.53;;
16514;SDS011;8370;52.556;7.970;2022-08-19T06:41:26;16.98;;;11.50;;
16514;SDS011;8370;52.556;7.970;2022-08-19T06:43:53;17.52;;;11.35;;
16514;SDS011;8370;52.556;7.970;2022-08-19T06:46:19;17.90;;;12.25;;
16514;SDS011;8370;52.556;7.970;2022-08-19T06:48:46;17.20;;;9.93;;
16514;SDS011;8370;52.556;7.970;2022-08-19T06:51:15;16.88;;;10.50;;
16514;SDS011;8370;52.556;7.970;2022-08-19T06:53:47;16.58;;;10.60;;
16514;SDS011;8370;52.556;7.970;2022-08-19T06:56:17;19.70;;;11.48;;
16514;SDS011;8370;52.556;7.970;2022-08-19T06:58:46;14.00;;;9.85;;
16514;SDS011;8370;52.556;7.970;2022-08-19T07:01:12;13.88;;;8.52;;
16514;SDS011;8370;52.556;7.970;2022-08-19T07:03:38;14.23;;;9.25;;
16514;SDS011;8370;52.556;7.970;2022-08-19T07:06:04;13.13;;;8.63;;
16514;SDS011;8370;52.556;7.970;2022-08-19T07:08:31;11.82;;;7.88;;
16514;SDS011;8370;52.556;7.970;2022-08-19T07:10:57;11.52;;;8.88;;
16514;SDS011;8370;52.556;7.970;2022-08-19T07:13:23;12.05;;;8.18;;
16514;SDS011;8370;52.556;7.970;2022-08-19T07:15:49;11.23;;;6.55;;
16514;SDS011;8370;52.556;7.970;2022-08-19T07:18:15;10.35;;;7.43;;
16514;SDS011;8370;52.556;7.970;2022-08-19T07:20:45;10.60;;;7.57;;
16514;SDS011;8370;52.556;7.970;2022-08-19T07:23:11;10.65;;;7.63;;
16514;SDS011;8370;52.556;7.970;2022-08-19T07:25:37;11.15;;;7.88;;
16514;SDS011;8370;52.556;7.970;2022-08-19T07:28:03;9.90;;;7.70;;
16514;SDS011;8370;52.556;7.970;2022-08-19T07:30:29;10.57;;;6.95;;
16514;SDS011;8370;52.556;7.970;2022-08-19T07:32:55;9.60;;;6.75;;
16514;SDS011;8370;52.556;7.970;2022-08-19T07:35:21;10.77;;;6.80;;
16514;SDS011;8370;52.556;7.970;2022-08-19T07:37:48;11.13;;;7.60;;
16514;SDS011;8370;52.556;7.970;2022-08-19T07:40:14;11.15;;;7.40;;
16514;SDS011;8370;52.556;7.970;2022-08-19T07:42:39;11.90;;;7.50;;
16514;SDS011;8370;52.556;7.970;2022-08-19T07:45:05;10.75;;;7.10;;
16514;SDS011;8370;52.556;7.970;2022-08-19T07:47:32;11.75;;;6.32;;
16514;SDS011;8370;52.556;7.970;2022-08-19T07:49:58;8.77;;;6.30;;
16514;SDS011;8370;52.556;7.970;2022-08-19T07:52:23;8.68;;;6.38;;
16514;SDS011;8370;52.556;7.970;2022-08-19T07:54:49;9.90;;;5.95;;
16514;SDS011;8370;52.556;7.970;2022-08-19T07:57:15;8.30;;;5.35;;
16514;SDS011;8370;52.556;7.970;2022-08-19T07:59:41;7.40;;;5.25;;
16514;SDS011;8370;52.556;7.970;2022-08-19T08:02:07;6.72;;;5.70;;
16514;SDS011;8370;52.556;7.970;2022-08-19T08:04:33;8.27;;;6.57;;
16514;SDS011;8370;52.556;7.970;2022-08-19T08:07:17;9.95;;;6.38;;
16514;SDS011;8370;52.556;7.970;2022-08-19T08:10:02;9.48;;;5.10;;
16514;SDS011;8370;52.556;7.970;2022-08-19T08:12:32;9.93;;;5.88;;
16514;SDS011;8370;52.556;7.970;2022-08-19T08:15:02;9.13;;;5.50;;
16514;SDS011;8370;52.556;7.970;2022-08-19T08:17:31;6.57;;;4.55;;
16514;SDS011;8370;52.556;7.970;2022-08-19T08:19:57;13.23;;;5.57;;
16514;SDS011;8370;52.556;7.970;2022-08-19T08:22:22;7.40;;;4.97;;
16514;SDS011;8370;52.556;7.970;2022-08-19T08:25:17;7.38;;;4.90;;
16514;SDS011;8370;52.556;7.970;2022-08-19T08:27:45;5.18;;;4.50;;
16514;SDS011;8370;52.556;7.970;2022-08-19T08:30:13;6.93;;;4.85;;
16514;SDS011;8370;52.556;7.970;2022-08-19T08:32:47;5.32;;;4.75;;
16514;SDS011;8370;52.556;7.970;2022-08-19T08:35:14;7.60;;;5.40;;
16514;SDS011;8370;52.556;7.970;2022-08-19T08:37:41;4.97;;;3.92;;
16514;SDS011;8370;52.556;7.970;2022-08-19T08:40:30;10.02;;;4.30;;
16514;SDS011;8370;52.556;7.970;2022-08-19T08:42:59;5.68;;;5.00;;
16514;SDS011;8370;52.556;7.970;2022-08-19T08:45:26;5.57;;;4.78;;
16514;SDS011;8370;52.556;7.970;2022-08-19T08:47:53;12.88;;;5.30;;
16514;SDS011;8370;52.556;7.970;2022-08-19T08:50:27;6.88;;;4.80;;
16514;SDS011;8370;52.556;7.970;2022-08-19T08:53:00;6.70;;;5.05;;
16514;SDS011;8370;52.556;7.970;2022-08-19T08:55:28;7.43;;;5.47;;
16514;SDS011;8370;52.556;7.970;2022-08-19T08:57:59;6.22;;;4.68;;
16514;SDS011;8370;52.556;7.970;2022-08-19T09:00:42;7.50;;;4.18;;
16514;SDS011;8370;52.556;7.970;2022-08-19T09:03:16;7.93;;;5.15;;
16514;SDS011;8370;52.556;7.970;2022-08-19T09:05:55;5.88;;;4.30;;
16514;SDS011;8370;52.556;7.970;2022-08-19T09:08:51;8.50;;;5.78;;
16514;SDS011;8370;52.556;7.970;2022-08-19T09:14:07;8.95;;;4.88;;
16514;SDS011;8370;52.556;7.970;2022-08-19T09:16:34;5.97;;;3.75;;
16514;SDS011;8370;52.556;7.970;2022-08-19T09:19:02;7.97;;;4.18;;
16514;SDS011;8370;52.556;7.970;2022-08-19T09:21:29;5.95;;;3.88;;
16514;SDS011;8370;52.556;7.970;2022-08-19T09:23:55;7.88;;;4.00;;
16514;SDS011;8370;52.556;7.970;2022-08-19T09:26:22;4.10;;;3.25;;
16514;SDS011;8370;52.556;7.970;2022-08-19T09:28:49;5.20;;;3.30;;
16514;SDS011;8370;52.556;7.970;2022-08-19T09:31:18;4.85;;;3.55;;
16514;SDS011;8370;52.556;7.970;2022-08-19T09:33:46;4.60;;;3.75;;
16514;SDS011;8370;52.556;7.970;2022-08-19T09:36:17;5.53;;;3.70;;
16514;SDS011;8370;52.556;7.970;2022-08-19T09:38:47;4.60;;;2.67;;
16514;SDS011;8370;52.556;7.970;2022-08-19T09:41:14;7.05;;;2.95;;
16514;SDS011;8370;52.556;7.970;2022-08-19T09:43:43;2.88;;;2.65;;
16514;SDS011;8370;52.556;7.970;2022-08-19T09:46:10;4.30;;;2.35;;
16514;SDS011;8370;52.556;7.970;2022-08-19T09:48:37;3.13;;;2.17;;
16514;SDS011;8370;52.556;7.970;2022-08-19T09:51:04;5.13;;;2.33;;
16514;SDS011;8370;52.556;7.970;2022-08-19T09:53:33;3.67;;;2.38;;
16514;SDS011;8370;52.556;7.970;2022-08-19T09:55:59;3.33;;;2.22;;
16514;SDS011;8370;52.556;7.970;2022-08-19T09:58:24;2.50;;;2.30;;
16514;SDS011;8370;52.556;7.970;2022-08-19T10:00:53;3.08;;;2.15;;
16514;SDS011;8370;52.556;7.970;2022-08-19T10:03:19;3.83;;;2.03;;
16514;SDS011;8370;52.556;7.970;2022-08-19T10:05:44;4.47;;;2.85;;
16514;SDS011;8370;52.556;7.970;2022-08-19T10:08:13;4.60;;;2.75;;
16514;SDS011;8370;52.556;7.970;2022-08-19T10:10:44;5.18;;;2.88;;
16514;SDS011;8370;52.556;7.970;2022-08-19T10:13:10;4.82;;;2.55;;
16514;SDS011;8370;52.556;7.970;2022-08-19T10:15:37;3.08;;;2.55;;
16514;SDS011;8370;52.556;7.970;2022-08-19T10:18:05;2.33;;;2.10;;
16514;SDS011;8370;52.556;7.970;2022-08-19T10:20:31;4.00;;;3.20;;
16514;SDS011;8370;52.556;7.970;2022-08-19T10:22:57;3.30;;;3.00;;
16514;SDS011;8370;52.556;7.970;2022-08-19T10:25:24;3.22;;;2.67;;
16514;SDS011;8370;52.556;7.970;2022-08-19T10:27:51;3.65;;;2.33;;
16514;SDS011;8370;52.556;7.970;2022-08-19T10:30:17;6.03;;;3.10;;
16514;SDS011;8370;52.556;7.970;2022-08-19T10:32:43;4.22;;;3.83;;
16514;SDS011;8370;52.556;7.970;2022-08-19T10:35:10;3.53;;;2.60;;
16514;SDS011;8370;52.556;7.970;2022-08-19T10:37:37;2.83;;;2.22;;
16514;SDS011;8370;52.556;7.970;2022-08-19T10:40:04;3.47;;;2.95;;
16514;SDS011;8370;52.556;7.970;2022-08-19T10:42:31;3.22;;;2.75;;
16514;SDS011;8370;52.556;7.970;2022-08-19T10:44:57;2.80;;;2.47;;
16514;SDS011;8370;52.556;7.970;2022-08-19T10:47:23;3.47;;;2.58;;
16514;SDS011;8370;52.556;7.970;2022-08-19T10:49:48;4.03;;;3.63;;
16514;SDS011;8370;52.556;7.970;2022-08-19T10:52:33;3.70;;;3.03;;
16514;SDS011;8370;52.556;7.970;2022-08-19T10:54:58;4.50;;;2.67;;
16514;SDS011;8370;52.556;7.970;2022-08-19T10:57:43;3.33;;;2.38;;
16514;SDS011;8370;52.556;7.970;2022-08-19T11:00:09;3.53;;;2.70;;
16514;SDS011;8370;52.556;7.970;2022-08-19T11:02:35;2.97;;;2.38;;
16514;SDS011;8370;52.556;7.970;2022-08-19T11:05:00;2.55;;;2.35;;
16514;SDS011;8370;52.556;7.970;2022-08-19T11:07:26;5.50;;;3.35;;
16514;SDS011;8370;52.556;7.970;2022-08-19T11:09:51;3.70;;;2.45;;
16514;SDS011;8370;52.556;7.970;2022-08-19T11:12:17;4.05;;;2.22;;
16514;SDS011;8370;52.556;7.970;2022-08-19T11:14:44;2.92;;;2.30;;
16514;SDS011;8370;52.556;7.970;2022-08-19T11:17:09;5.07;;;2.38;;
16514;SDS011;8370;52.556;7.970;2022-08-19T11:19:38;4.03;;;2.45;;
16514;SDS011;8370;52.556;7.970;2022-08-19T11:22:04;2.45;;;2.25;;
16514;SDS011;8370;52.556;7.970;2022-08-19T11:24:34;2.90;;;2.42;;
16514;SDS011;8370;52.556;7.970;2022-08-19T11:27:05;4.85;;;2.30;;
16514;SDS011;8370;52.556;7.970;2022-08-19T11:29:33;4.15;;;2.17;;
16514;SDS011;8370;52.556;7.970;2022-08-19T11:32:02;4.25;;;2.28;;
16514;SDS011;8370;52.556;7.970;2022-08-19T11:34:29;2.85;;;2.28;;
16514;SDS011;8370;52.556;7.970;2022-08-19T11:36:55;2.80;;;2.20;;
16514;SDS011;8370;52.556;7.970;2022-08-19T11:39:26;3.35;;;2.67;;
16514;SDS011;8370;52.556;7.970;2022-08-19T11:41:52;2.42;;;2.20;;
16514;SDS011;8370;52.556;7.970;2022-08-19T11:44:18;7.50;;;2.97;;
16514;SDS011;8370;52.556;7.970;2022-08-19T11:46:44;5.18;;;2.95;;
16514;SDS011;8370;52.556;7.970;2022-08-19T11:49:11;3.67;;;2.53;;
16514;SDS011;8370;52.556;7.970;2022-08-19T11:51:38;3.85;;;2.55;;
16514;SDS011;8370;52.556;7.970;2022-08-19T11:54:04;2.42;;;2.22;;
16514;SDS011;8370;52.556;7.970;2022-08-19T11:56:30;3.35;;;2.10;;
16514;SDS011;8370;52.556;7.970;2022-08-19T11:58:56;4.80;;;2.22;;
16514;SDS011;8370;52.556;7.970;2022-08-19T12:01:22;3.22;;;1.98;;
16514;SDS011;8370;52.556;7.970;2022-08-19T12:03:50;3.28;;;2.20;;
16514;SDS011;8370;52.556;7.970;2022-08-19T12:06:18;2.25;;;1.80;;
16514;SDS011;8370;52.556;7.970;2022-08-19T12:08:52;2.53;;;2.33;;
16514;SDS011;8370;52.556;7.970;2022-08-19T12:11:19;5.18;;;2.22;;
16514;SDS011;8370;52.556;7.970;2022-08-19T12:13:45;3.13;;;2.17;;
16514;SDS011;8370;52.556;7.970;2022-08-19T12:16:15;2.78;;;2.13;;
16514;SDS011;8370;52.556;7.970;2022-08-19T12:18:43;2.78;;;2.15;;
16514;SDS011;8370;52.556;7.970;2022-08-19T12:21:11;2.95;;;2.40;;
16514;SDS011;8370;52.556;7.970;2022-08-19T12:23:41;2.85;;;2.00;;
16514;SDS011;8370;52.556;7.970;2022-08-19T12:26:08;4.55;;;2.20;;
16514;SDS011;8370;52.556;7.970;2022-08-19T12:28:35;1.83;;;1.73;;
16514;SDS011;8370;52.556;7.970;2022-08-19T12:31:01;2.40;;;1.67;;
16514;SDS011;8370;52.556;7.970;2022-08-19T12:33:27;1.60;;;1.50;;
16514;SDS011;8370;52.556;7.970;2022-08-19T12:35:53;1.80;;;1.70;;
16514;SDS011;8370;52.556;7.970;2022-08-19T12:38:19;1.80;;;1.60;;
16514;SDS011;8370;52.556;7.970;2022-08-19T12:40:48;2.70;;;1.90;;
16514;SDS011;8370;52.556;7.970;2022-08-19T12:43:16;2.17;;;1.90;;
16514;SDS011;8370;52.556;7.970;2022-08-19T12:45:42;3.35;;;2.30;;
16514;SDS011;8370;52.556;7.970;2022-08-19T12:48:08;2.38;;;1.85;;
16514;SDS011;8370;52.556;7.970;2022-08-19T12:50:34;4.63;;;2.85;;
16514;SDS011;8370;52.556;7.970;2022-08-19T12:52:59;2.05;;;1.85;;
16514;SDS011;8370;52.556;7.970;2022-08-19T12:55:25;3.05;;;2.35;;
16514;SDS011;8370;52.556;7.970;2022-08-19T12:57:53;3.80;;;2.00;;
16514;SDS011;8370;52.556;7.970;2022-08-19T13:00:19;2.10;;;1.83;;
16514;SDS011;8370;52.556;7.970;2022-08-19T13:02:46;4.40;;;2.22;;
16514;SDS011;8370;52.556;7.970;2022-08-19T13:05:16;2.03;;;1.88;;
16514;SDS011;8370;52.556;7.970;2022-08-19T13:07:53;2.20;;;2.00;;
16514;SDS011;8370;52.556;7.970;2022-08-19T13:10:21;2.33;;;1.95;;
16514;SDS011;8370;52.556;7.970;2022-08-19T13:12:48;2.28;;;1.95;;
16514;SDS011;8370;52.556;7.970;2022-08-19T13:15:15;2.15;;;1.80;;
16514;SDS011;8370;52.556;7.970;2022-08-19T13:17:45;2.45;;;1.90;;
16514;SDS011;8370;52.556;7.970;2022-08-19T13:20:15;2.00;;;1.80;;
16514;SDS011;8370;52.556;7.970;2022-08-19T13:22:42;3.05;;;1.75;;
16514;SDS011;8370;52.556;7.970;2022-08-19T13:25:09;2.65;;;1.83;;
16514;SDS011;8370;52.556;7.970;2022-08-19T13:27:35;2.15;;;1.80;;
16514;SDS011;8370;52.556;7.970;2022-08-19T13:30:02;2.00;;;1.90;;
16514;SDS011;8370;52.556;7.970;2022-08-19T13:32:47;2.88;;;1.98;;
16514;SDS011;8370;52.556;7.970;2022-08-19T13:35:31;3.05;;;2.20;;
16514;SDS011;8370;52.556;7.970;2022-08-19T13:37:57;2.80;;;2.60;;
16514;SDS011;8370;52.556;7.970;2022-08-19T13:40:23;2.50;;;2.30;;
16514;SDS011;8370;52.556;7.970;2022-08-19T13:42:51;2.47;;;2.28;;
16514;SDS011;8370;52.556;7.970;2022-08-19T13:45:20;2.63;;;2.42;;
16514;SDS011;8370;52.556;7.970;2022-08-19T13:47:48;2.78;;;2.40;;
16514;SDS011;8370;52.556;7.970;2022-08-19T13:50:16;4.72;;;2.47;;
16514;SDS011;8370;52.556;7.970;2022-08-19T13:52:44;2.50;;;2.25;;
16514;SDS011;8370;52.556;7.970;2022-08-19T13:55:12;2.40;;;2.20;;
16514;SDS011;8370;52.556;7.970;2022-08-19T13:57:38;2.65;;;2.45;;
16514;SDS011;8370;52.556;7.970;2022-08-19T14:00:06;3.47;;;2.38;;
16514;SDS011;8370;52.556;7.970;2022-08-19T14:02:35;2.72;;;2.10;;
16514;SDS011;8370;52.556;7.970;2022-08-19T14:05:02;6.63;;;2.50;;
16514;SDS011;8370;52.556;7.970;2022-08-19T14:07:29;2.53;;;2.20;;
16514;SDS011;8370;52.556;7.970;2022-08-19T14:09:54;2.60;;;2.40;;
16514;SDS011;8370;52.556;7.970;2022-08-19T14:12:20;2.72;;;2.30;;
16514;SDS011;8370;52.556;7.970;2022-08-19T14:14:46;3.30;;;2.47;;
16514;SDS011;8370;52.556;7.970;2022-08-19T14:17:12;3.85;;;2.33;;
16514;SDS011;8370;52.556;7.970;2022-08-19T14:19:37;2.30;;;2.10;;
16514;SDS011;8370;52.556;7.970;2022-08-19T14:22:03;5.45;;;2.50;;
16514;SDS011;8370;52.556;7.970;2022-08-19T14:24:30;2.70;;;2.50;;
16514;SDS011;8370;52.556;7.970;2022-08-19T14:26:56;2.85;;;2.55;;
16514;SDS011;8370;52.556;7.970;2022-08-19T14:29:23;2.60;;;2.40;;
16514;SDS011;8370;52.556;7.970;2022-08-19T14:31:48;4.00;;;2.25;;
16514;SDS011;8370;52.556;7.970;2022-08-19T14:34:14;4.25;;;2.28;;
16514;SDS011;8370;52.556;7.970;2022-08-19T14:36:39;4.00;;;2.72;;
16514;SDS011;8370;52.556;7.970;2022-08-19T14:39:06;2.60;;;2.40;;
16514;SDS011;8370;52.556;7.970;2022-08-19T14:41:34;2.80;;;2.60;;
16514;SDS011;8370;52.556;7.970;2022-08-19T14:44:00;2.90;;;2.70;;
16514;SDS011;8370;52.556;7.970;2022-08-19T14:46:26;2.85;;;2.65;;
16514;SDS011;8370;52.556;7.970;2022-08-19T14:48:53;4.05;;;2.70;;
16514;SDS011;8370;52.556;7.970;2022-08-19T14:51:21;2.60;;;2.35;;
16514;SDS011;8370;52.556;7.970;2022-08-19T14:53:48;4.72;;;2.75;;
16514;SDS011;8370;52.556;7.970;2022-08-19T14:56:15;3.25;;;2.95;;
16514;SDS011;8370;52.556;7.970;2022-08-19T14:58:43;3.08;;;2.75;;
16514;SDS011;8370;52.556;7.970;2022-08-19T15:01:09;3.25;;;2.90;;
16514;SDS011;8370;52.556;7.970;2022-08-19T15:03:36;3.28;;;2.80;;